Time;durP1;ratioP1;P1;durP2;ratioP2;P2;SDS_P1;SDS_P2;PMS_P1;PMS_P2;Temp;Humidity;BMP_temperature;BMP_pressure;BME280_temperature;BME280_humidity;BME280_pressure;Samples;Min_cycle;Max_cycle;Signal;HPM_P1;HPM_P2
2022/01/07 00:02:14;;;;;;;30.35;4.85;;;;;;;4.53;100.00;100720.34;5075002;28;20052;-51
2022/01/07 00:04:42;;;;;;;34.67;4.60;;;;;;;4.48;100.00;100717.84;5075506;28;20052;-51
2022/01/07 00:07:11;;;;;;;43.05;7.97;;;;;;;4.47;100.00;100722.25;5074508;28;20057;-50
2022/01/07 00:09:39;;;;;;;31.45;4.65;;;;;;;4.34;100.00;100726.19;5074656;28;20432;-51
2022/01/07 00:12:10;;;;;;;29.38;5.25;;;;;;;4.40;100.00;100718.09;5075010;28;20526;-51
2022/01/07 00:14:39;;;;;;;41.53;5.05;;;;;;;4.41;100.00;100717.19;5074230;28;20057;-51
2022/01/07 00:17:07;;;;;;;31.77;6.18;;;;;;;4.43;100.00;100715.38;5074759;28;20146;-51
2022/01/07 00:19:35;;;;;;;38.83;7.28;;;;;;;4.41;100.00;100709.31;5075242;28;20056;-51
2022/01/07 00:22:04;;;;;;;35.38;4.43;;;;;;;4.41;100.00;100705.84;5074934;28;20052;-51
2022/01/07 00:24:32;;;;;;;42.80;5.55;;;;;;;4.39;100.00;100697.16;5074094;28;20058;-51
2022/01/07 00:27:01;;;;;;;40.05;5.00;;;;;;;4.57;100.00;100706.16;5074482;28;20488;-51
2022/01/07 00:29:50;;;;;;;41.95;4.95;;;;;;;4.51;100.00;100701.13;5075127;28;20098;-49
2022/01/07 00:32:19;;;;;;;29.92;4.22;;;;;;;4.39;100.00;100703.25;5074513;28;20523;-50
2022/01/07 00:34:47;;;;;;;42.25;5.57;;;;;;;4.46;100.00;100710.00;5074852;28;20057;-51
2022/01/07 00:37:15;;;;;;;30.60;4.57;;;;;;;4.30;100.00;100719.31;5074753;28;20056;-51
2022/01/07 00:39:45;;;;;;;32.10;4.13;;;;;;;4.26;100.00;100713.31;5074114;28;20062;-51
2022/01/07 00:42:13;;;;;;;34.17;4.60;;;;;;;4.20;100.00;100716.16;5074004;28;20052;-51
2022/01/07 00:44:42;;;;;;;32.97;4.28;;;;;;;4.19;100.00;100703.91;5074719;28;20056;-51
2022/01/07 00:47:11;;;;;;;20.77;3.72;;;;;;;4.20;100.00;100723.13;5074184;28;20056;-51
2022/01/07 00:49:40;;;;;;;36.60;4.00;;;;;;;4.22;100.00;100723.94;5074042;28;20064;-51
2022/01/07 00:52:09;;;;;;;19.88;3.75;;;;;;;4.20;100.00;100723.13;5074045;28;20056;-51
2022/01/07 00:54:37;;;;;;;39.10;4.65;;;;;;;4.20;100.00;100717.88;5073732;28;20058;-51
2022/01/07 00:57:06;;;;;;;27.98;4.32;;;;;;;4.20;100.00;100716.16;5073980;28;20063;-51
2022/01/07 00:59:34;;;;;;;27.67;3.95;;;;;;;4.12;100.00;100718.16;5073928;28;20519;-51
2022/01/07 01:02:03;;;;;;;31.05;4.70;;;;;;;4.08;100.00;100713.91;5073918;28;20052;-50
2022/01/07 01:04:43;;;;;;;19.92;3.58;;;;;;;4.09;100.00;100716.47;5074891;28;20079;-51
2022/01/07 01:07:12;;;;;;;32.55;5.63;;;;;;;4.07;100.00;100707.78;5074137;28;20064;-51
2022/01/07 01:09:40;;;;;;;27.42;3.70;;;;;;;3.95;100.00;100702.94;5074972;28;20582;-51
2022/01/07 01:12:10;;;;;;;29.42;3.33;;;;;;;4.05;100.00;100703.47;5074991;28;20063;-51
2022/01/07 01:14:39;;;;;;;24.83;5.18;;;;;;;3.99;100.00;100706.31;5073589;28;20053;-51
2022/01/07 01:17:08;;;;;;;24.95;3.88;;;;;;;4.05;100.00;100704.38;5074074;28;20060;-51
2022/01/07 01:19:36;;;;;;;22.98;2.65;;;;;;;4.04;100.00;100707.03;5074857;28;20070;-52
2022/01/07 01:22:08;;;;;;;23.85;3.40;;;;;;;4.02;100.00;100704.47;5073720;28;20052;-51
2022/01/07 01:24:36;;;;;;;27.42;4.97;;;;;;;4.05;100.00;100691.25;5073820;28;20056;-51
2022/01/07 01:27:05;;;;;;;32.72;3.38;;;;;;;4.15;100.00;100698.81;5073627;28;20063;-51
2022/01/07 01:29:33;;;;;;;27.02;2.97;;;;;;;4.25;100.00;100689.72;5073667;28;20505;-51
2022/01/07 01:32:03;;;;;;;35.83;5.60;;;;;;;4.40;100.00;100694.44;5073998;28;20052;-51
2022/01/07 01:34:31;;;;;;;33.33;3.88;;;;;;;4.40;100.00;100693.59;5074022;28;20436;-51
2022/01/07 01:36:59;;;;;;;32.08;3.70;;;;;;;4.40;100.00;100699.69;5073593;28;20056;-49
2022/01/07 01:39:29;;;;;;;22.23;2.97;;;;;;;4.53;100.00;100697.53;5073593;28;20068;-50
2022/01/07 01:41:58;;;;;;;20.80;3.40;;;;;;;4.56;100.00;100699.22;5073903;28;20063;-51
2022/01/07 01:44:26;;;;;;;24.13;3.05;;;;;;;4.58;100.00;100702.63;5074175;28;20056;-52
2022/01/07 01:46:56;;;;;;;26.13;2.67;;;;;;;4.64;100.00;100697.19;5073770;28;20059;-51
2022/01/07 01:49:24;;;;;;;17.52;2.53;;;;;;;4.76;100.00;100691.50;5073803;28;20079;-51
2022/01/07 01:51:52;;;;;;;22.05;4.13;;;;;;;4.79;100.00;100690.50;5073791;28;20057;-51
2022/01/07 01:54:21;;;;;;;33.65;3.33;;;;;;;4.86;100.00;100697.28;5075923;28;20060;-50
2022/01/07 01:56:50;;;;;;;25.80;4.05;;;;;;;4.91;100.00;100689.22;5077401;28;20056;-51
2022/01/07 01:59:24;;;;;;;29.23;3.95;;;;;;;5.03;100.00;100694.06;5077387;28;20057;-49
2022/01/07 02:01:52;;;;;;;26.42;3.85;;;;;;;5.04;100.00;100695.75;5077875;28;20052;-51
2022/01/07 02:04:21;;;;;;;33.88;3.45;;;;;;;5.01;100.00;100696.72;5076707;28;20135;-51
2022/01/07 02:06:50;;;;;;;24.17;4.10;;;;;;;5.07;100.00;100686.91;5077087;28;20068;-51
2022/01/07 02:09:22;;;;;;;20.73;4.00;;;;;;;4.99;100.00;100695.94;5077362;28;20057;-51
2022/01/07 02:11:52;;;;;;;13.90;2.15;;;;;;;4.90;100.00;100687.53;5077417;28;20059;-51
2022/01/07 02:14:20;;;;;;;15.75;2.72;;;;;;;4.94;100.00;100691.75;5077503;28;20067;-50
2022/01/07 02:16:49;;;;;;;13.85;2.20;;;;;;;4.92;100.00;100698.84;5076746;28;20068;-51
2022/01/07 02:19:17;;;;;;;19.20;2.13;;;;;;;4.90;100.00;100698.03;5077023;28;20057;-51
2022/01/07 02:21:46;;;;;;;12.50;2.15;;;;;;;4.86;100.00;100691.16;5076601;28;20063;-51
2022/01/07 02:24:15;;;;;;;11.07;1.77;;;;;;;4.96;100.00;100703.06;5076946;28;20538;-51
2022/01/07 02:26:45;;;;;;;8.63;2.50;;;;;;;5.03;100.00;100697.53;5076616;28;20508;-50
2022/01/07 02:29:13;;;;;;;12.15;2.67;;;;;;;5.14;100.00;100694.50;5077141;28;20060;-51
2022/01/07 02:31:41;;;;;;;21.67;2.92;;;;;;;5.20;100.00;100702.16;5076465;28;20056;-51
2022/01/07 02:34:10;;;;;;;23.05;2.55;;;;;;;5.30;100.00;100701.84;5076945;28;20484;-51
2022/01/07 02:36:38;;;;;;;12.75;2.30;;;;;;;5.32;100.00;100697.38;5076941;28;20638;-51
2022/01/07 02:39:07;;;;;;;18.05;2.80;;;;;;;5.35;100.00;100694.66;5076337;28;20057;-51
2022/01/07 02:41:36;;;;;;;23.23;2.25;;;;;;;5.36;100.00;100686.69;5076617;28;20057;-51
2022/01/07 02:44:04;;;;;;;20.50;2.97;;;;;;;5.35;100.00;100689.38;5076901;28;20059;-51
2022/01/07 02:46:32;;;;;;;24.42;3.20;;;;;;;5.45;100.00;100695.16;5076394;28;20059;-51
2022/01/07 02:49:08;;;;;;;13.50;2.20;;;;;;;5.43;100.00;100692.59;5076430;28;20057;-50
2022/01/07 02:51:36;;;;;;;20.88;2.28;;;;;;;5.39;100.00;100706.75;5077270;28;20057;-51
2022/01/07 02:54:05;;;;;;;19.60;2.40;;;;;;;5.31;100.00;100691.28;5076975;28;20056;-49
2022/01/07 02:56:36;;;;;;;22.80;2.72;;;;;;;5.26;100.00;100685.31;5075981;28;20063;-51
2022/01/07 02:59:04;;;;;;;14.02;2.70;;;;;;;5.28;100.00;100685.25;5076024;28;20053;-51
2022/01/07 03:01:33;;;;;;;19.35;2.38;;;;;;;5.31;100.00;100691.28;5075911;28;20060;-50
2022/01/07 03:04:02;;;;;;;16.73;1.90;;;;;;;5.35;100.00;100684.13;5075309;28;20057;-51
2022/01/07 03:06:30;;;;;;;11.70;2.05;;;;;;;5.32;100.00;100694.75;5075435;28;20056;-51
2022/01/07 03:08:58;;;;;;;13.98;1.92;;;;;;;5.28;100.00;100701.91;5076128;28;20069;-51
2022/01/07 03:11:27;;;;;;;12.35;1.80;;;;;;;5.30;100.00;100691.31;5076015;28;20058;-50
2022/01/07 03:13:56;;;;;;;6.80;1.33;;;;;;;5.17;100.00;100686.50;5076715;28;20059;-50
2022/01/07 03:16:25;;;;;;;12.73;1.65;;;;;;;5.17;100.00;100696.19;5076224;28;20048;-51
2022/01/07 03:18:53;;;;;;;13.13;1.70;;;;;;;5.09;100.00;100699.06;5075527;28;20060;-51
2022/01/07 03:21:21;;;;;;;5.95;1.45;;;;;;;4.97;100.00;100704.78;5075482;28;20071;-51
2022/01/07 03:23:49;;;;;;;12.70;1.63;;;;;;;4.92;100.00;100696.19;5075175;28;20052;-51
2022/01/07 03:26:18;;;;;;;11.95;1.85;;;;;;;4.74;100.00;100702.97;5075411;28;20222;-52
2022/01/07 03:28:47;;;;;;;10.23;1.98;;;;;;;4.57;100.00;100711.41;5076369;28;20384;-51
2022/01/07 03:31:17;;;;;;;15.10;2.13;;;;;;;4.39;100.00;100707.66;5075562;28;20052;-51
2022/01/07 03:33:45;;;;;;;10.85;1.95;;;;;;;4.40;100.00;100704.09;5074982;28;20110;-51
2022/01/07 03:36:13;;;;;;;12.55;1.88;;;;;;;4.35;100.00;100701.63;5075199;28;20053;-51
2022/01/07 03:38:42;;;;;;;9.55;1.42;;;;;;;4.16;100.00;100700.53;5075438;28;20068;-51
2022/01/07 03:41:10;;;;;;;9.38;1.85;;;;;;;4.11;100.00;100691.94;5076195;28;20056;-51
2022/01/07 03:43:38;;;;;;;7.07;1.38;;;;;;;4.06;100.00;100698.19;5075113;28;20056;-51
2022/01/07 03:46:07;;;;;;;15.98;1.92;;;;;;;4.14;100.00;100690.06;5076173;28;20404;-51
2022/01/07 03:48:36;;;;;;;13.55;2.08;;;;;;;4.18;100.00;100693.47;5075140;28;20056;-51
2022/01/07 03:51:05;;;;;;;9.23;1.30;;;;;;;4.11;100.00;100690.16;5075233;28;20071;-51
2022/01/07 03:53:33;;;;;;;14.07;2.08;;;;;;;4.07;100.00;100680.69;5074774;28;20059;-51
2022/01/07 03:56:01;;;;;;;14.95;2.97;;;;;;;3.97;100.00;100676.63;5075667;28;20082;-51
2022/01/07 03:58:29;;;;;;;13.68;2.90;;;;;;;3.99;100.00;100667.81;5075885;28;20056;-51
2022/01/07 04:00:58;;;;;;;16.63;3.30;;;;;;;4.02;100.00;100659.84;5074984;28;20060;-51
2022/01/07 04:03:26;;;;;;;13.88;3.22;;;;;;;3.91;100.00;100675.91;5074660;28;20543;-51
2022/01/07 04:05:56;;;;;;;17.17;1.77;;;;;;;3.89;100.00;100677.72;5075220;28;20408;-52
2022/01/07 04:08:24;;;;;;;10.25;1.85;;;;;;;3.93;100.00;100682.88;5074852;28;20384;-51
2022/01/07 04:10:52;;;;;;;17.23;2.38;;;;;;;3.78;100.00;100690.31;5074585;28;20057;-51
2022/01/07 04:13:21;;;;;;;12.30;1.58;;;;;;;3.77;100.00;100693.88;5074788;28;20053;-51
2022/01/07 04:15:49;;;;;;;17.83;2.53;;;;;;;4.09;100.00;100705.13;5073970;28;20060;-51
2022/01/07 04:18:18;;;;;;;16.30;1.95;;;;;;;4.21;100.00;100699.47;5074713;28;20068;-51
2022/01/07 04:20:46;;;;;;;12.23;1.70;;;;;;;4.23;100.00;100704.66;5075313;28;20052;-51
2022/01/07 04:23:16;;;;;;;12.27;1.40;;;;;;;4.42;100.00;100724.19;5075264;28;20052;-51
2022/01/07 04:25:44;;;;;;;9.55;1.80;;;;;;;4.55;100.00;100721.13;5074944;28;20056;-52
2022/01/07 04:28:12;;;;;;;11.95;1.55;;;;;;;4.62;100.00;100715.63;5074549;28;20068;-51
2022/01/07 04:30:44;;;;;;;13.82;1.60;;;;;;;4.60;100.00;100711.31;5074257;28;20052;-51
2022/01/07 04:33:14;;;;;;;15.55;1.85;;;;;;;4.61;100.00;100692.03;5074059;28;20057;-51
2022/01/07 04:35:44;;;;;;;14.05;2.22;;;;;;;4.40;100.00;100702.34;5074298;28;20063;-51
2022/01/07 04:38:12;;;;;;;14.60;1.95;;;;;;;4.17;100.00;100696.97;5074220;28;20069;-51
2022/01/07 04:40:41;;;;;;;10.70;2.25;;;;;;;4.09;100.00;100702.50;5074169;28;20068;-49
2022/01/07 04:43:10;;;;;;;17.10;2.00;;;;;;;4.13;100.00;100701.47;5074463;28;20131;-51
2022/01/07 04:45:38;;;;;;;13.73;2.10;;;;;;;4.19;100.00;100700.44;5074610;28;20052;-51
2022/01/07 04:48:06;;;;;;;10.05;2.00;;;;;;;4.12;100.00;100706.78;5074318;28;20061;-51
2022/01/07 04:50:35;;;;;;;13.93;2.10;;;;;;;4.02;100.00;100706.22;5074380;28;20068;-51
2022/01/07 04:53:04;;;;;;;15.80;2.45;;;;;;;3.80;100.00;100698.16;5074926;28;20056;-51
2022/01/07 04:55:36;;;;;;;11.18;2.42;;;;;;;3.76;100.00;100693.91;5074645;28;20056;-51
2022/01/07 04:58:09;;;;;;;16.48;3.13;;;;;;;3.80;100.00;100703.41;5073757;28;20543;-50
2022/01/07 05:00:38;;;;;;;21.67;2.83;;;;;;;3.72;100.00;100696.63;5073733;28;20059;-51
2022/01/07 05:03:06;;;;;;;22.33;6.78;;;;;;;3.63;100.00;100696.94;5073899;28;20132;-50
2022/01/07 05:05:35;;;;;;;18.23;2.53;;;;;;;3.61;100.00;100692.63;5073937;28;20136;-51
2022/01/07 05:08:04;;;;;;;15.40;2.30;;;;;;;3.65;100.00;100708.22;5073621;28;20075;-49
2022/01/07 05:10:33;;;;;;;23.88;3.25;;;;;;;3.65;100.00;100704.75;5073947;28;20056;-50
2022/01/07 05:13:01;;;;;;;20.08;2.58;;;;;;;3.69;100.00;100709.84;5074343;28;20079;-51
2022/01/07 05:15:31;;;;;;;18.25;2.45;;;;;;;3.78;100.00;100707.84;5074990;28;20056;-51
2022/01/07 05:17:59;;;;;;;12.57;1.95;;;;;;;3.72;100.00;100711.53;5073774;28;20057;-51
2022/01/07 05:20:27;;;;;;;17.85;3.13;;;;;;;3.75;100.00;100710.56;5074079;28;20053;-50
2022/01/07 05:22:55;;;;;;;9.13;2.25;;;;;;;3.70;100.00;100719.44;5074075;28;20057;-51
2022/01/07 05:25:24;;;;;;;24.13;3.53;;;;;;;3.58;100.00;100719.81;5074580;28;20060;-48
2022/01/07 05:27:52;;;;;;;22.95;2.83;;;;;;;3.52;100.00;100714.75;5074071;28;20064;-50
2022/01/07 05:30:21;;;;;;;16.83;1.80;;;;;;;3.64;100.00;100717.00;5077965;28;20056;-51
2022/01/07 05:32:50;;;;;;;24.85;2.83;;;;;;;3.72;100.00;100712.38;5077930;28;20062;-49
2022/01/07 05:35:18;;;;;;;19.25;2.17;;;;;;;3.58;100.00;100718.94;5078168;28;20056;-50
2022/01/07 05:37:47;;;;;;;11.50;2.30;;;;;;;3.47;100.00;100722.72;5077761;28;20057;-49
2022/01/07 05:40:16;;;;;;;21.92;2.25;;;;;;;3.63;100.00;100723.16;5078005;28;20056;-51
2022/01/07 05:42:44;;;;;;;16.58;1.83;;;;;;;3.59;100.00;100744.28;5077676;28;20049;-48
2022/01/07 05:45:13;;;;;;;15.10;2.17;;;;;;;3.61;100.00;100745.09;5078170;28;20071;-50
2022/01/07 05:47:41;;;;;;;16.67;2.58;;;;;;;3.59;100.00;100742.50;5077558;28;20079;-51
2022/01/07 05:50:11;;;;;;;11.77;2.17;;;;;;;3.51;100.00;100739.25;5077191;28;20060;-50
2022/01/07 05:52:39;;;;;;;20.58;2.20;;;;;;;3.59;100.00;100745.13;5077627;28;20048;-50
2022/01/07 05:55:08;;;;;;;18.40;1.88;;;;;;;3.66;100.00;100749.28;5077185;28;20053;-50
2022/01/07 05:57:36;;;;;;;19.75;2.38;;;;;;;3.66;100.00;100748.44;5078142;28;20059;-51
2022/01/07 06:00:07;;;;;;;15.57;1.83;;;;;;;3.66;100.00;100748.44;5076949;28;20517;-50
2022/01/07 06:02:35;;;;;;;12.27;2.60;;;;;;;3.47;100.00;100754.22;5077364;28;20048;-49
2022/01/07 06:05:04;;;;;;;12.65;2.17;;;;;;;3.54;100.00;100760.13;5076697;28;20500;-49
2022/01/07 06:07:34;;;;;;;14.50;1.98;;;;;;;3.64;100.00;100756.34;5077696;28;20057;-51
2022/01/07 06:10:02;;;;;;;11.88;1.98;;;;;;;3.80;100.00;100761.13;5077045;28;20063;-51
2022/01/07 06:12:30;;;;;;;14.02;1.70;;;;;;;3.89;100.00;100768.75;5077356;28;20049;-51
2022/01/07 06:14:59;;;;;;;17.73;2.58;;;;;;;4.09;100.00;100760.25;5076519;28;20058;-50
2022/01/07 06:17:27;;;;;;;17.55;1.60;;;;;;;4.33;100.00;100771.75;5076695;28;20056;-51
2022/01/07 06:19:55;;;;;;;12.70;1.92;;;;;;;4.53;100.00;100772.88;5076661;28;20056;-51
2022/01/07 06:22:23;;;;;;;11.55;2.22;;;;;;;4.53;100.00;100778.13;5076550;28;20064;-50
2022/01/07 06:24:53;;;;;;;12.23;1.52;;;;;;;4.61;100.00;100773.47;5076329;28;20053;-50
2022/01/07 06:27:21;;;;;;;10.02;1.80;;;;;;;4.54;100.00;100777.19;5077138;28;20063;-51
2022/01/07 06:29:49;;;;;;;23.17;2.47;;;;;;;4.50;100.00;100770.34;5076438;28;20052;-50
2022/01/07 06:32:18;;;;;;;17.95;2.38;;;;;;;4.49;100.00;100773.88;5076467;28;20056;-50
2022/01/07 06:34:46;;;;;;;12.70;2.22;;;;;;;4.41;100.00;100774.97;5076137;28;20059;-50
2022/01/07 06:37:14;;;;;;;18.95;2.92;;;;;;;4.28;100.00;100768.41;5076961;28;20447;-51
2022/01/07 06:39:42;;;;;;;16.60;2.80;;;;;;;4.26;100.00;100770.22;5076196;28;20060;-50
2022/01/07 06:42:12;;;;;;;15.82;2.03;;;;;;;4.13;100.00;100774.13;5076481;28;20052;-50
2022/01/07 06:44:41;;;;;;;17.35;2.25;;;;;;;4.03;100.00;100769.16;5075922;28;20056;-50
2022/01/07 06:47:09;;;;;;;27.92;3.00;;;;;;;4.01;100.00;100770.97;5077230;28;20075;-50
2022/01/07 06:49:37;;;;;;;16.83;4.38;;;;;;;4.09;100.00;100779.47;5076027;28;20496;-50
2022/01/07 06:52:07;;;;;;;23.52;3.72;;;;;;;4.23;100.00;100780.81;5076096;28;20091;-51
2022/01/07 06:54:35;;;;;;;19.40;2.60;;;;;;;4.38;100.00;100780.31;5077112;28;20388;-50
2022/01/07 06:57:03;;;;;;;7.75;1.48;;;;;;;4.50;100.00;100780.84;5076258;28;20048;-51
2022/01/07 06:59:33;;;;;;;20.30;2.45;;;;;;;4.45;100.00;100786.25;5076023;28;20064;-49
2022/01/07 07:02:02;;;;;;;13.05;1.95;;;;;;;4.44;100.00;100774.03;5075522;28;20505;-51
2022/01/07 07:04:30;;;;;;;11.38;1.58;;;;;;;4.32;100.00;100770.03;5076718;28;20135;-51
2022/01/07 07:06:58;;;;;;;8.75;1.95;;;;;;;4.12;100.00;100772.41;5076090;28;20414;-50
2022/01/07 07:09:27;;;;;;;11.32;2.17;;;;;;;4.11;100.00;100786.47;5075988;28;20409;-51
2022/01/07 07:11:55;;;;;;;13.70;2.63;;;;;;;4.11;100.00;100768.09;5075704;28;20057;-51
2022/01/07 07:14:23;;;;;;;11.60;2.72;;;;;;;3.98;100.00;100778.94;5075363;28;20057;-51
2022/01/07 07:16:53;;;;;;;13.40;1.45;;;;;;;3.85;100.00;100774.97;5075886;28;20072;-51
2022/01/07 07:19:22;;;;;;;12.93;2.35;;;;;;;3.91;100.00;100773.03;5075521;28;20061;-51
2022/01/07 07:21:50;;;;;;;16.73;2.20;;;;;;;3.91;100.00;100765.16;5075765;28;20060;-51
2022/01/07 07:24:19;;;;;;;13.90;1.83;;;;;;;3.90;100.00;100758.19;5075205;28;20052;-51
2022/01/07 07:26:47;;;;;;;17.73;1.75;;;;;;;3.76;100.00;100770.00;5075754;28;20064;-51
2022/01/07 07:29:15;;;;;;;14.55;2.10;;;;;;;3.66;100.00;100790.41;5075279;28;20057;-51
2022/01/07 07:31:48;;;;;;;14.20;3.03;;;;;;;3.67;100.00;100787.75;5075602;28;20056;-49
2022/01/07 07:37:03;;;;;;;7.22;1.05;;;;;;;3.89;100.00;100808.97;5068221;28;20048;-51
2022/01/07 07:39:32;;;;;;;14.27;1.45;;;;;;;3.76;100.00;100804.13;5075145;28;20060;-51
2022/01/07 07:42:00;;;;;;;8.30;1.42;;;;;;;3.75;100.00;100805.00;5076167;28;20057;-50
2022/01/07 07:44:28;;;;;;;12.40;1.67;;;;;;;3.77;100.00;100797.97;5075654;28;20352;-51
2022/01/07 07:46:57;;;;;;;16.42;2.33;;;;;;;3.71;100.00;100788.50;5075868;28;20071;-51
2022/01/07 07:49:27;;;;;;;7.75;1.02;;;;;;;3.82;100.00;100783.81;5074799;28;20057;-50
2022/01/07 07:51:55;;;;;;;12.55;1.70;;;;;;;3.67;100.00;100782.50;5075546;28;20049;-48
2022/01/07 07:54:24;;;;;;;4.57;0.80;;;;;;;3.59;100.00;100773.13;5075977;28;20064;-51
2022/01/07 07:56:52;;;;;;;9.30;1.52;;;;;;;3.49;100.00;100754.16;5075563;28;20052;-50
2022/01/07 07:59:22;;;;;;;17.48;1.85;;;;;;;3.47;100.00;100763.84;5074702;28;20064;-50
2022/01/07 08:01:50;;;;;;;8.50;1.67;;;;;;;3.43;100.00;100751.72;5074931;28;20063;-51
2022/01/07 08:04:20;;;;;;;10.80;2.15;;;;;;;3.50;100.00;100761.16;5075481;28;20087;-48
2022/01/07 08:06:49;;;;;;;11.73;1.80;;;;;;;3.58;100.00;100756.53;5074631;28;20052;-50
2022/01/07 08:09:18;;;;;;;9.35;1.58;;;;;;;3.49;100.00;100767.28;5075040;28;20143;-49
2022/01/07 08:11:57;;;;;;;12.30;2.13;;;;;;;3.50;100.00;100761.16;5074403;28;20053;-50
2022/01/07 08:17:11;;;;;;;10.88;2.03;;;;;;;3.43;100.00;100793.66;5075419;28;20049;-49
2022/01/07 08:19:39;;;;;;;11.13;2.00;;;;;;;3.47;100.00;100800.56;5075230;28;20053;-50
2022/01/07 08:22:10;;;;;;;11.52;2.00;;;;;;;3.57;100.00;100807.28;5074630;28;20132;-49
2022/01/07 08:24:38;;;;;;;15.13;1.83;;;;;;;3.69;100.00;100812.16;5074134;28;20500;-50
2022/01/07 08:27:07;;;;;;;23.02;2.47;;;;;;;3.88;100.00;100822.13;5074365;28;20053;-50
2022/01/07 08:29:55;;;;;;;12.35;1.85;;;;;;;4.20;100.00;100822.94;5074189;28;20056;-50
2022/01/07 08:35:09;;;;;;;12.20;2.45;;;;;;;4.36;100.00;100829.44;5075401;28;20056;-50
2022/01/07 08:37:39;;;;;;;23.25;2.00;;;;;;;4.30;100.00;100845.38;5074529;28;20053;-51
2022/01/07 08:40:08;;;;;;;16.73;3.22;;;;;;;4.37;100.00;100846.91;5075274;28;20396;-51
2022/01/07 08:42:37;;;;;;;21.98;3.13;;;;;;;4.53;100.00;100851.69;5074689;28;20056;-50
2022/01/07 08:45:06;;;;;;;9.70;2.50;;;;;;;4.51;100.00;100832.50;5074788;28;20052;-50
2022/01/07 08:47:34;;;;;;;15.30;2.15;;;;;;;4.59;100.00;100825.19;5074369;28;20412;-51
2022/01/07 08:50:03;;;;;;;17.52;2.20;;;;;;;4.70;100.00;100827.50;5074035;28;20056;-50
2022/01/07 08:52:31;;;;;;;18.83;2.03;;;;;;;4.67;100.00;100828.44;5075185;28;20053;-50
2022/01/07 08:55:00;;;;;;;15.50;2.97;;;;;;;4.86;100.00;100833.09;5073755;28;20052;-50
2022/01/07 08:57:29;;;;;;;13.45;1.85;;;;;;;5.01;100.00;100827.34;5073959;28;20071;-49
2022/01/07 08:59:57;;;;;;;22.75;2.70;;;;;;;5.11;100.00;100828.75;5073962;28;20052;-51
2022/01/07 09:02:25;;;;;;;18.73;2.60;;;;;;;5.25;100.00;100832.69;5074163;28;20053;-50
2022/01/07 09:04:54;;;;;;;16.55;2.30;;;;;;;5.25;100.00;100836.16;5078196;28;20057;-49
2022/01/07 09:07:22;;;;;;;16.05;2.25;;;;;;;5.29;100.00;100840.38;5078867;28;20057;-51
2022/01/07 09:09:50;;;;;;;23.90;3.03;;;;;;;5.48;99.43;100839.75;5078630;28;20053;-51
2022/01/07 09:12:20;;;;;;;18.55;2.30;;;;;;;5.63;99.65;100835.69;5077995;28;20052;-50
2022/01/07 09:14:48;;;;;;;17.65;2.65;;;;;;;5.76;97.91;100843.09;5077708;28;20394;-49
2022/01/07 09:17:16;;;;;;;14.20;1.63;;;;;;;5.86;97.36;100843.59;5078202;28;20053;-50
2022/01/07 09:19:44;;;;;;;13.30;2.95;;;;;;;6.10;95.22;100846.25;5077861;28;20075;-50
2022/01/07 09:22:13;;;;;;;17.05;2.60;;;;;;;6.19;94.03;100851.19;5078613;28;20095;-50
2022/01/07 09:24:41;;;;;;;12.73;1.85;;;;;;;6.56;91.73;100849.75;5077895;28;20092;-50
2022/01/07 09:27:09;;;;;;;19.55;2.58;;;;;;;6.92;89.78;100851.81;5077761;28;20056;-50
2022/01/07 09:29:38;;;;;;;11.00;2.38;;;;;;;7.31;87.42;100858.09;5077678;28;20053;-48
2022/01/07 09:32:08;;;;;;;13.57;2.00;;;;;;;7.69;84.29;100860.88;5078156;28;20079;-49
2022/01/07 09:34:37;;;;;;;12.93;2.17;;;;;;;8.17;81.99;100863.06;5077974;28;20052;-50
2022/01/07 09:37:06;;;;;;;13.02;2.00;;;;;;;8.85;76.90;100867.78;5078128;28;20048;-51
2022/01/07 09:39:36;;;;;;;13.13;1.83;;;;;;;9.54;73.34;100860.78;5077797;28;20063;-51
2022/01/07 09:42:06;;;;;;;15.43;2.28;;;;;;;10.11;69.92;100870.19;5077193;28;20099;-51
2022/01/07 09:44:38;;;;;;;16.20;2.95;;;;;;;10.65;66.19;100854.81;5078302;28;20056;-50
2022/01/07 09:47:08;;;;;;;17.80;2.63;;;;;;;11.55;64.59;100865.50;5077111;28;20052;-51
2022/01/07 09:49:36;;;;;;;15.95;3.08;;;;;;;12.22;60.57;100874.69;5078091;28;20053;-50
2022/01/07 09:52:06;;;;;;;15.90;2.67;;;;;;;12.59;59.61;100879.44;5077151;28;20103;-50
2022/01/07 09:54:35;;;;;;;17.95;4.07;;;;;;;13.63;55.56;100871.63;5078073;28;20056;-50
2022/01/07 09:57:04;;;;;;;16.55;2.78;;;;;;;14.37;53.01;100854.91;5077581;28;20071;-51
2022/01/07 09:59:32;;;;;;;14.48;2.20;;;;;;;14.45;51.89;100866.72;5077636;28;20053;-50
2022/01/07 10:02:04;;;;;;;12.05;2.03;;;;;;;14.15;52.09;100866.28;5077332;28;20056;-49
2022/01/07 10:04:34;;;;;;;9.98;2.58;;;;;;;14.66;52.37;100855.47;5076787;28;20106;-49
2022/01/07 10:07:13;;;;;;;14.23;2.80;;;;;;;14.96;50.36;100875.50;5076933;28;20072;-51
2022/01/07 10:09:42;;;;;;;11.30;2.75;;;;;;;15.27;50.96;100879.41;5078011;28;20064;-50
2022/01/07 10:12:10;;;;;;;21.35;2.85;;;;;;;15.72;49.57;100886.69;5077144;28;20056;-50
2022/01/07 10:14:38;;;;;;;17.45;3.78;;;;;;;15.38;49.13;100873.22;5077105;28;20057;-49
2022/01/07 10:17:09;;;;;;;19.55;3.45;;;;;;;15.77;47.68;100884.53;5076787;28;20049;-50
2022/01/07 10:19:38;;;;;;;17.23;3.08;;;;;;;15.42;47.96;100880.06;5076794;28;20423;-51
2022/01/07 10:22:08;;;;;;;15.07;3.70;;;;;;;15.83;47.25;100883.19;5076911;28;20065;-52
2022/01/07 10:24:55;;;;;;;12.48;2.80;;;;;;;16.78;44.67;100880.03;5077263;28;20131;-51
2022/01/07 10:27:25;;;;;;;13.55;1.92;;;;;;;17.24;44.97;100892.34;5077554;28;20057;-49
2022/01/07 10:29:54;;;;;;;13.88;2.70;;;;;;;16.85;43.72;100886.66;5077227;28;20068;-50
2022/01/07 10:32:33;;;;;;;13.10;2.13;;;;;;;15.97;46.64;100891.00;5076721;28;20088;-51
2022/01/07 10:35:03;;;;;;;16.42;2.60;;;;;;;15.80;46.96;100889.63;5076249;28;20052;-50
2022/01/07 10:37:32;;;;;;;18.55;3.03;;;;;;;16.28;46.92;100889.41;5077010;28;20056;-48
2022/01/07 10:40:00;;;;;;;19.95;2.85;;;;;;;16.47;45.07;100879.88;5077523;28;20059;-49
2022/01/07 10:42:28;;;;;;;17.90;2.60;;;;;;;16.63;44.08;100888.38;5077140;28;20064;-49
2022/01/07 10:45:01;;;;;;;14.70;2.63;;;;;;;15.76;45.62;100893.53;5076950;28;20057;-49
2022/01/07 10:47:29;;;;;;;12.93;2.90;;;;;;;16.56;44.88;100892.53;5076812;28;20063;-51
2022/01/07 10:50:19;;;;;;;16.48;2.70;;;;;;;17.40;41.74;100894.56;5076934;28;20075;-50
2022/01/07 10:52:48;;;;;;;14.48;2.83;;;;;;;17.29;42.85;100890.13;5075826;28;20578;-51
2022/01/07 10:55:19;;;;;;;17.63;2.28;;;;;;;17.54;41.74;100898.75;5077253;28;20056;-49
2022/01/07 10:57:51;;;;;;;12.10;2.85;;;;;;;17.38;42.48;100884.00;5076123;28;20143;-52
2022/01/07 11:00:20;;;;;;;14.30;2.88;;;;;;;16.43;43.70;100881.13;5076330;28;20408;-51
2022/01/07 11:02:49;;;;;;;15.05;2.70;;;;;;;17.03;43.49;100889.59;5077349;28;20061;-49
2022/01/07 11:05:18;;;;;;;15.93;2.60;;;;;;;16.79;43.28;100865.69;5076520;28;20060;-49
2022/01/07 11:07:47;;;;;;;14.80;2.55;;;;;;;17.40;41.99;100876.66;5075877;28;20075;-50
2022/01/07 11:10:15;;;;;;;17.35;2.60;;;;;;;17.14;42.71;100888.72;5076968;28;20052;-50
2022/01/07 11:12:43;;;;;;;11.65;2.70;;;;;;;17.42;42.58;100869.31;5075697;28;20064;-51
2022/01/07 11:15:12;;;;;;;12.27;2.75;;;;;;;18.31;40.52;100886.75;5075752;28;20496;-49
2022/01/07 11:17:42;;;;;;;13.20;2.55;;;;;;;18.50;39.47;100875.22;5075945;28;20079;-50
2022/01/07 11:20:12;;;;;;;12.85;2.65;;;;;;;18.11;40.45;100881.31;5075333;28;20063;-50
2022/01/07 11:22:42;;;;;;;15.38;3.63;;;;;;;18.76;39.26;100880.88;5076389;28;20061;-49
2022/01/07 11:25:13;;;;;;;11.80;2.40;;;;;;;19.42;38.52;100888.28;5074881;28;20096;-52
2022/01/07 11:27:50;;;;;;;15.93;3.35;;;;;;;20.18;36.14;100867.69;5074831;28;20063;-51
2022/01/07 11:30:19;;;;;;;17.25;3.20;;;;;;;20.58;35.43;100869.19;5075704;28;20052;-50
2022/01/07 11:32:48;;;;;;;14.90;3.22;;;;;;;20.27;35.64;100866.78;5075550;28;20122;-51
2022/01/07 11:35:47;;;;;;;15.65;2.67;;;;;;;20.23;35.75;100865.41;5075202;28;20436;-49
2022/01/07 11:38:36;;;;;;;17.67;2.90;;;;;;;19.85;36.07;100873.50;5076602;28;20052;-50